Time;durP1;ratioP1;P1;durP2;ratioP2;P2;SDS_P1;SDS_P2;PMS_P1;PMS_P2;Temp;Humidity;BMP_temperature;BMP_pressure;BME280_temperature;BME280_humidity;BME280_pressure;Samples;Min_cycle;Max_cycle;Signal;HPM_P1;HPM_P2
2023/05/18 00:01:09;;;;;;;6.85;3.60;;;;;;;;;;5053565;28;20052;-60
2023/05/18 00:03:36;;;;;;;10.00;4.15;;;;;;;;;;5054146;28;20048;-60
2023/05/18 00:06:06;;;;;;;10.27;4.13;;;;;;;;;;5053295;28;20053;-59
2023/05/18 00:08:33;;;;;;;6.88;3.95;;;;;;;;;;5053441;28;20136;-59
2023/05/18 00:11:04;;;;;;;6.57;3.35;;;;;;;;;;5060596;28;20048;-59
2023/05/18 00:13:30;;;;;;;9.00;3.55;;;;;;;;;;5055895;28;20060;-59
2023/05/18 00:15:57;;;;;;;10.32;4.20;;;;;;;;;;5052679;28;20067;-59
2023/05/18 00:18:26;;;;;;;7.30;4.03;;;;;;;;;;5053198;28;20075;-59
2023/05/18 00:20:57;;;;;;;7.28;3.95;;;;;;;;;;5052767;28;20053;-59
2023/05/18 00:23:28;;;;;;;7.03;3.88;;;;;;;;;;5053453;28;20063;-59
2023/05/18 00:25:56;;;;;;;8.07;3.75;;;;;;;;;;5052788;28;20128;-59
2023/05/18 00:28:23;;;;;;;6.97;3.28;;;;;;;;;;5053264;28;20049;-59
2023/05/18 00:30:49;;;;;;;10.15;3.65;;;;;;;;;;5052896;28;20060;-59
2023/05/18 00:33:16;;;;;;;5.95;3.13;;;;;;;;;;5053053;28;20496;-59
2023/05/18 00:35:43;;;;;;;4.40;3.22;;;;;;;;;;5053827;28;20076;-59
2023/05/18 00:38:10;;;;;;;5.68;3.40;;;;;;;;;;5072763;28;20052;-59
2023/05/18 00:40:39;;;;;;;8.95;4.07;;;;;;;;;;5067504;28;20505;-59
2023/05/18 00:43:06;;;;;;;6.93;4.25;;;;;;;;;;5053321;28;20390;-59
2023/05/18 00:45:35;;;;;;;7.45;3.60;;;;;;;;;;5052966;28;20052;-59
2023/05/18 00:48:02;;;;;;;6.90;3.40;;;;;;;;;;5053246;28;20053;-60
2023/05/18 00:50:29;;;;;;;6.72;3.55;;;;;;;;;;5052926;28;20083;-59
2023/05/18 00:52:56;;;;;;;7.20;3.63;;;;;;;;;;5053061;28;20483;-59
2023/05/18 00:55:23;;;;;;;7.78;4.30;;;;;;;;;;5052567;28;20056;-59
2023/05/18 00:57:55;;;;;;;9.10;4.20;;;;;;;;;;5070717;28;20052;-59
2023/05/18 01:00:22;;;;;;;9.65;3.78;;;;;;;;;;5072828;28;20079;-59
2023/05/18 01:02:49;;;;;;;10.50;4.60;;;;;;;;;;5072620;28;20063;-59
2023/05/18 01:05:16;;;;;;;7.78;4.60;;;;;;;;;;5072659;28;20048;-59
2023/05/18 01:07:44;;;;;;;8.77;4.50;;;;;;;;;;5068044;28;20049;-59
2023/05/18 01:10:11;;;;;;;6.15;3.60;;;;;;;;;;5054587;28;20049;-60
2023/05/18 01:12:41;;;;;;;6.93;4.00;;;;;;;;;;5052679;28;20506;-60
2023/05/18 01:15:08;;;;;;;;;;;;;;;;;;5052996;28;20061;-60
2023/05/18 01:17:39;;;;;;;7.82;3.38;;;;;;;;;;5052544;28;19920;-60
2023/05/18 01:20:15;;;;;;;6.57;3.65;;;;;;;;;;5052439;28;20407;-61
2023/05/18 01:23:01;;;;;;;7.97;4.18;;;;;;;;;;5052362;28;20052;-60
2023/05/18 01:25:33;;;;;;;6.88;3.75;;;;;;;;;;5052284;28;20064;-60
2023/05/18 01:28:05;;;;;;;5.43;4.13;;;;;;;;;;5052478;28;20470;-60
2023/05/18 01:30:33;;;;;;;7.85;4.03;;;;;;;;;;5052237;28;20057;-60
2023/05/18 01:33:00;;;;;;;7.63;4.07;;;;;;;;;;5052093;28;20045;-60
2023/05/18 01:35:27;;;;;;;12.18;4.10;;;;;;;;;;5052173;28;20132;-60
2023/05/18 01:37:54;;;;;;;8.80;3.80;;;;;;;;;;5052406;28;20049;-60
2023/05/18 01:40:21;;;;;;;6.43;4.03;;;;;;;;;;5054783;28;20052;-60
2023/05/18 01:42:51;;;;;;;8.27;4.57;;;;;;;;;;5072321;28;20056;-60
2023/05/18 01:45:22;;;;;;;8.48;4.18;;;;;;;;;;5072262;28;20075;-60
2023/05/18 01:47:49;;;;;;;7.70;4.22;;;;;;;;;;5072515;28;20057;-60
2023/05/18 01:50:21;;;;;;;8.95;4.38;;;;;;;;;;5074820;28;20052;-59
2023/05/18 01:52:51;;;;;;;5.85;3.67;;;;;;;;;;5076262;28;20049;-59
2023/05/18 01:55:19;;;;;;;8.05;4.05;;;;;;;;;;5073115;28;20063;-59
2023/05/18 01:57:47;;;;;;;7.35;4.00;;;;;;;;;;5076240;28;20049;-59
2023/05/18 02:00:16;;;;;;;5.38;4.05;;;;;;;;;;5075845;28;20055;-59
2023/05/18 02:02:45;;;;;;;7.13;4.27;;;;;;;;;;5075759;28;20055;-59
2023/05/18 02:05:12;;;;;;;7.50;3.85;;;;;;;;;;5075079;28;20059;-59
2023/05/18 02:07:39;;;;;;;6.22;3.65;;;;;;;;;;5075474;28;20059;-59
2023/05/18 02:10:06;;;;;;;8.52;3.85;;;;;;;;;;5071988;28;20053;-59
2023/05/18 02:12:33;;;;;;;6.82;4.30;;;;;;;;;;5073360;28;20449;-59
2023/05/18 02:15:04;;;;;;;7.32;3.90;;;;;;;;;;5075865;28;20060;-59
2023/05/18 02:17:31;;;;;;;5.72;3.85;;;;;;;;;;5075574;28;20049;-59
2023/05/18 02:20:05;;;;;;;7.65;4.07;;;;;;;;;;5075369;28;20182;-59
2023/05/18 02:22:32;;;;;;;9.15;3.97;;;;;;;;;;5075457;28;20067;-59
2023/05/18 02:24:59;;;;;;;6.68;3.88;;;;;;;;;;5074426;28;20063;-59
2023/05/18 02:27:26;;;;;;;7.38;4.45;;;;;;;;;;5055721;28;20052;-59
2023/05/18 02:29:54;;;;;;;9.32;4.82;;;;;;;;;;5055748;28;20057;-59
2023/05/18 02:32:22;;;;;;;8.07;4.63;;;;;;;;;;5055674;28;20478;-60
2023/05/18 02:34:51;;;;;;;7.53;4.47;;;;;;;;;;5055694;28;20064;-59
2023/05/18 02:37:21;;;;;;;7.82;4.18;;;;;;;;;;5055343;28;20052;-59
2023/05/18 02:39:48;;;;;;;8.57;4.30;;;;;;;;;;5055011;28;20057;-59
2023/05/18 02:42:15;;;;;;;6.47;4.85;;;;;;;;;;5073134;28;20392;-59
2023/05/18 02:44:42;;;;;;;9.15;4.90;;;;;;;;;;5074925;28;20060;-59
2023/05/18 02:47:11;;;;;;;6.32;3.90;;;;;;;;;;5075569;28;20383;-57
2023/05/18 02:49:38;;;;;;;7.38;4.60;;;;;;;;;;5075213;28;20052;-58
2023/05/18 02:52:05;;;;;;;9.13;4.15;;;;;;;;;;5074085;28;20379;-57
2023/05/18 02:54:34;;;;;;;7.95;4.45;;;;;;;;;;5075404;28;20485;-59
2023/05/18 02:57:00;;;;;;;7.18;4.53;;;;;;;;;;5057508;28;20064;-59
2023/05/18 02:59:27;;;;;;;8.70;4.68;;;;;;;;;;5054944;28;20053;-59
2023/05/18 03:01:54;;;;;;;6.30;4.30;;;;;;;;;;5054491;28;20166;-59
2023/05/18 03:04:24;;;;;;;9.35;4.30;;;;;;;;;;5054790;28;20053;-59
2023/05/18 03:06:52;;;;;;;7.63;4.75;;;;;;;;;;5054665;28;20417;-59
2023/05/18 03:09:19;;;;;;;6.45;3.95;;;;;;;;;;5072806;28;20052;-59
2023/05/18 03:11:47;;;;;;;7.43;3.85;;;;;;;;;;5056601;28;20060;-59
2023/05/18 03:14:18;;;;;;;7.32;4.22;;;;;;;;;;5054751;28;20053;-59
2023/05/18 03:16:45;;;;;;;7.40;4.15;;;;;;;;;;5054729;28;20493;-59
2023/05/18 03:19:13;;;;;;;10.93;4.68;;;;;;;;;;5055542;28;20053;-59
2023/05/18 03:21:40;;;;;;;9.63;4.47;;;;;;;;;;5074267;28;20524;-59
2023/05/18 03:24:07;;;;;;;7.15;4.78;;;;;;;;;;5074693;28;20049;-59
2023/05/18 03:26:34;;;;;;;7.10;4.63;;;;;;;;;;5061130;28;20048;-59
2023/05/18 03:29:02;;;;;;;9.25;4.50;;;;;;;;;;5054739;28;20064;-59
2023/05/18 03:31:29;;;;;;;6.68;4.20;;;;;;;;;;5054658;28;20060;-59
2023/05/18 03:33:56;;;;;;;9.25;4.70;;;;;;;;;;5054699;28;20056;-60
2023/05/18 03:36:24;;;;;;;8.18;4.75;;;;;;;;;;5066569;28;20386;-59
2023/05/18 03:38:51;;;;;;;8.90;4.40;;;;;;;;;;5056234;28;20171;-59
2023/05/18 03:41:18;;;;;;;9.48;4.50;;;;;;;;;;5060693;28;20052;-59
2023/05/18 03:43:45;;;;;;;11.02;5.28;;;;;;;;;;5073516;28;20514;-59
2023/05/18 03:46:13;;;;;;;9.15;4.63;;;;;;;;;;5074010;28;20063;-59
2023/05/18 03:48:40;;;;;;;5.70;4.32;;;;;;;;;;5073169;28;20059;-59
2023/05/18 03:51:07;;;;;;;7.47;4.53;;;;;;;;;;5073988;28;20056;-59
2023/05/18 03:53:35;;;;;;;8.10;4.38;;;;;;;;;;5073973;28;20059;-59
2023/05/18 03:56:01;;;;;;;8.32;4.82;;;;;;;;;;5070678;28;20056;-59
2023/05/18 03:58:28;;;;;;;8.63;5.07;;;;;;;;;;5074047;28;20075;-59
2023/05/18 04:00:56;;;;;;;11.50;5.28;;;;;;;;;;5073533;28;20060;-59
2023/05/18 04:03:25;;;;;;;6.28;4.28;;;;;;;;;;5073794;28;20056;-59
2023/05/18 04:05:52;;;;;;;8.73;4.85;;;;;;;;;;5071736;28;20056;-59
2023/05/18 04:08:19;;;;;;;8.38;5.32;;;;;;;;;;5073413;28;20059;-59
2023/05/18 04:10:46;;;;;;;8.73;4.63;;;;;;;;;;5071769;28;20063;-60
2023/05/18 04:13:13;;;;;;;7.68;4.65;;;;;;;;;;5053829;28;20067;-59
2023/05/18 04:15:40;;;;;;;9.65;4.90;;;;;;;;;;5053832;28;20057;-59
2023/05/18 04:18:07;;;;;;;8.90;5.00;;;;;;;;;;5062608;28;20055;-59
2023/05/18 04:20:36;;;;;;;8.23;5.00;;;;;;;;;;5073185;28;20048;-59
2023/05/18 04:23:03;;;;;;;9.10;5.35;;;;;;;;;;5073298;28;20052;-59
2023/05/18 04:25:32;;;;;;;6.57;4.38;;;;;;;;;;5072918;28;20061;-59
2023/05/18 04:27:59;;;;;;;11.17;5.33;;;;;;;;;;5057778;28;20063;-59
2023/05/18 04:30:28;;;;;;;8.25;5.00;;;;;;;;;;5053472;28;20060;-59
2023/05/18 04:32:57;;;;;;;6.85;4.63;;;;;;;;;;5053211;28;20052;-62
2023/05/18 04:35:24;;;;;;;12.68;6.10;;;;;;;;;;5053156;28;20060;-59
2023/05/18 04:37:53;;;;;;;9.98;5.38;;;;;;;;;;5051748;28;20422;-60
2023/05/18 04:40:20;;;;;;;7.93;5.53;;;;;;;;;;5067053;28;20048;-60
2023/05/18 04:42:47;;;;;;;10.65;5.25;;;;;;;;;;5061874;28;20049;-60
2023/05/18 04:45:16;;;;;;;19.45;4.78;;;;;;;;;;5053410;28;20053;-60
2023/05/18 04:47:45;;;;;;;6.53;4.65;;;;;;;;;;5052990;28;20053;-60
2023/05/18 04:50:13;;;;;;;6.30;4.40;;;;;;;;;;5053597;28;20056;-60
2023/05/18 04:52:40;;;;;;;8.18;4.85;;;;;;;;;;5055255;28;20445;-60
2023/05/18 04:55:09;;;;;;;6.13;4.25;;;;;;;;;;5063637;28;20048;-60
2023/05/18 04:57:36;;;;;;;10.93;5.22;;;;;;;;;;5061497;28;20048;-59
2023/05/18 05:00:04;;;;;;;6.38;4.50;;;;;;;;;;5056381;28;20401;-60
2023/05/18 05:02:31;;;;;;;7.68;5.38;;;;;;;;;;5070125;28;20059;-59
2023/05/18 05:04:58;;;;;;;10.32;5.55;;;;;;;;;;5068168;28;20415;-60
2023/05/18 05:07:25;;;;;;;8.55;4.80;;;;;;;;;;5061593;28;20056;-59
2023/05/18 05:09:52;;;;;;;9.00;5.50;;;;;;;;;;5072248;28;20056;-60
2023/05/18 05:12:20;;;;;;;7.40;4.90;;;;;;;;;;5068978;28;20056;-59
2023/05/18 05:14:50;;;;;;;6.78;4.43;;;;;;;;;;5066247;28;20049;-59
2023/05/18 05:17:16;;;;;;;;;;;;;;;;;;5066223;28;20045;-59
2023/05/18 05:19:43;;;;;;;6.00;4.40;;;;;;;;;;5069814;28;20365;-60
2023/05/18 05:22:10;;;;;;;8.43;4.93;;;;;;;;;;5055994;28;20071;-59
2023/05/18 05:24:36;;;;;;;9.10;5.90;;;;;;;;;;5073000;28;20045;-60
2023/05/18 05:27:03;;;;;;;7.75;5.68;;;;;;;;;;5070243;28;20061;-60
2023/05/18 05:29:32;;;;;;;9.88;5.65;;;;;;;;;;5061051;28;20052;-60
2023/05/18 05:31:58;;;;;;;8.05;5.35;;;;;;;;;;5066887;28;20055;-58
2023/05/18 05:34:25;;;;;;;10.32;6.57;;;;;;;;;;5068775;28;20049;-59
2023/05/18 05:36:52;;;;;;;10.48;6.05;;;;;;;;;;5072495;28;20490;-58
2023/05/18 05:39:19;;;;;;;8.52;5.75;;;;;;;;;;5069304;28;20060;-59
2023/05/18 05:41:46;;;;;;;10.68;6.40;;;;;;;;;;5057875;28;20049;-59
2023/05/18 05:44:13;;;;;;;13.88;6.43;;;;;;;;;;5065723;28;20056;-59
2023/05/18 05:46:41;;;;;;;10.88;5.85;;;;;;;;;;5058230;28;20409;-59
2023/05/18 05:49:08;;;;;;;8.95;5.88;;;;;;;;;;5072179;28;20044;-59
2023/05/18 05:51:34;;;;;;;8.73;5.72;;;;;;;;;;5075754;28;20049;-59
2023/05/18 05:54:01;;;;;;;11.82;6.07;;;;;;;;;;5069156;28;20052;-60
2023/05/18 05:56:28;;;;;;;9.57;7.10;;;;;;;;;;5055456;28;20060;-59
2023/05/18 05:58:55;;;;;;;13.50;7.32;;;;;;;;;;5071917;28;20052;-59
2023/05/18 06:01:22;;;;;;;12.05;6.40;;;;;;;;;;5075931;28;20063;-59
2023/05/18 06:03:50;;;;;;;12.85;6.45;;;;;;;;;;5076002;28;20059;-59
2023/05/18 06:06:17;;;;;;;12.82;6.85;;;;;;;;;;5072018;28;20053;-59
2023/05/18 06:08:44;;;;;;;13.45;6.32;;;;;;;;;;5069011;28;20060;-59
2023/05/18 06:11:11;;;;;;;10.00;6.00;;;;;;;;;;5067870;28;20136;-59
2023/05/18 06:13:38;;;;;;;11.07;6.03;;;;;;;;;;5067180;28;20070;-59
2023/05/18 06:16:05;;;;;;;8.55;5.70;;;;;;;;;;5059032;28;20386;-59
2023/05/18 06:18:33;;;;;;;8.80;5.32;;;;;;;;;;5059191;28;20060;-60
2023/05/18 06:21:01;;;;;;;8.73;4.88;;;;;;;;;;5055280;28;20053;-60
2023/05/18 06:23:28;;;;;;;10.05;5.68;;;;;;;;;;5056437;28;20060;-59
2023/05/18 06:25:55;;;;;;;9.57;4.90;;;;;;;;;;5065707;28;20068;-59
2023/05/18 06:28:22;;;;;;;9.18;5.13;;;;;;;;;;5061228;28;20079;-59
2023/05/18 06:30:48;;;;;;;8.90;4.88;;;;;;;;;;5064947;28;20486;-59
2023/05/18 06:33:15;;;;;;;9.82;4.55;;;;;;;;;;5060832;28;20063;-59
2023/05/18 06:35:42;;;;;;;10.50;4.82;;;;;;;;;;5074816;28;20048;-59
2023/05/18 06:38:10;;;;;;;8.10;4.72;;;;;;;;;;5063290;28;20049;-59
2023/05/18 06:40:37;;;;;;;12.82;5.00;;;;;;;;;;5054742;28;20049;-59
2023/05/18 06:43:04;;;;;;;7.70;4.20;;;;;;;;;;5066204;28;20052;-61
2023/05/18 06:45:31;;;;;;;11.80;4.97;;;;;;;;;;5054710;28;20250;-59
2023/05/18 06:47:58;;;;;;;9.27;4.22;;;;;;;;;;5054933;28;20060;-59
2023/05/18 06:50:25;;;;;;;10.32;5.35;;;;;;;;;;5060745;28;20489;-60
2023/05/18 06:52:52;;;;;;;9.10;4.53;;;;;;;;;;5061092;28;20060;-58
2023/05/18 06:55:20;;;;;;;13.20;4.93;;;;;;;;;;5056720;28;20049;-58
2023/05/18 06:57:47;;;;;;;9.98;4.00;;;;;;;;;;5053732;28;20053;-59
2023/05/18 07:00:14;;;;;;;7.78;4.00;;;;;;;;;;5060537;28;20056;-58
2023/05/18 07:02:43;;;;;;;7.63;3.72;;;;;;;;;;5060209;28;20075;-58
2023/05/18 07:05:09;;;;;;;7.97;4.07;;;;;;;;;;5056689;28;20059;-59
2023/05/18 07:07:36;;;;;;;6.90;3.78;;;;;;;;;;5063821;28;20052;-59
2023/05/18 07:10:03;;;;;;;6.95;4.05;;;;;;;;;;5069007;28;20045;-58
2023/05/18 07:12:32;;;;;;;6.57;3.55;;;;;;;;;;5057973;28;20060;-58
2023/05/18 07:14:58;;;;;;;7.78;3.63;;;;;;;;;;5066764;28;20500;-58
2023/05/18 07:17:25;;;;;;;7.68;4.00;;;;;;;;;;5061074;28;20055;-59
2023/05/18 07:19:52;;;;;;;7.53;3.58;;;;;;;;;;5057727;28;20409;-59
2023/05/18 07:22:19;;;;;;;9.02;3.70;;;;;;;;;;5059561;28;20076;-58
2023/05/18 07:24:46;;;;;;;9.30;3.92;;;;;;;;;;5055542;28;20056;-58
2023/05/18 07:27:13;;;;;;;6.60;3.63;;;;;;;;;;5056575;28;20049;-58
2023/05/18 07:29:41;;;;;;;7.15;3.25;;;;;;;;;;5065661;28;20055;-59
2023/05/18 07:32:08;;;;;;;10.80;3.30;;;;;;;;;;5055007;28;20048;-58
2023/05/18 07:34:34;;;;;;;9.30;4.25;;;;;;;;;;5052237;28;20060;-58
2023/05/18 07:37:02;;;;;;;8.55;3.13;;;;;;;;;;5055306;28;20049;-58
2023/05/18 07:39:28;;;;;;;7.78;2.95;;;;;;;;;;5059567;28;20075;-58
2023/05/18 07:41:56;;;;;;;6.60;3.72;;;;;;;;;;5067350;28;20052;-58
2023/05/18 07:44:23;;;;;;;7.03;3.10;;;;;;;;;;5054167;28;20053;-59
2023/05/18 07:46:51;;;;;;;8.35;3.08;;;;;;;;;;5058086;28;20052;-56
2023/05/18 07:49:18;;;;;;;7.75;3.45;;;;;;;;;;5052590;28;20064;-59
2023/05/18 07:51:44;;;;;;;6.15;3.00;;;;;;;;;;5057802;28;20058;-58
2023/05/18 07:54:11;;;;;;;7.55;3.08;;;;;;;;;;5059454;28;20390;-59
2023/05/18 07:56:39;;;;;;;8.90;3.13;;;;;;;;;;5063329;28;20045;-59
2023/05/18 07:59:06;;;;;;;7.45;2.88;;;;;;;;;;5056925;28;20060;-59
2023/05/18 08:01:34;;;;;;;7.55;2.83;;;;;;;;;;5050562;28;20049;-59
2023/05/18 08:04:02;;;;;;;6.68;2.63;;;;;;;;;;5052533;28;20041;-59
2023/05/18 08:06:29;;;;;;;5.28;2.40;;;;;;;;;;5057387;28;20045;-59
2023/05/18 08:08:56;;;;;;;6.32;2.63;;;;;;;;;;5059787;28;20496;-59
2023/05/18 08:11:23;;;;;;;6.80;2.60;;;;;;;;;;5069109;28;21480;-60
2023/05/18 08:13:50;;;;;;;5.95;2.58;;;;;;;;;;5059845;28;20508;-59
2023/05/18 08:16:17;;;;;;;6.22;2.83;;;;;;;;;;5072956;28;20051;-60
2023/05/18 08:18:43;;;;;;;8.95;2.78;;;;;;;;;;5073237;28;20417;-59
2023/05/18 08:21:12;;;;;;;4.47;2.30;;;;;;;;;;5073326;28;20067;-60
2023/05/18 08:23:39;;;;;;;7.63;2.50;;;;;;;;;;5073485;28;20079;-60
2023/05/18 08:26:07;;;;;;;6.03;3.00;;;;;;;;;;5072931;28;20052;-59
2023/05/18 08:28:33;;;;;;;6.65;2.50;;;;;;;;;;5056546;28;20429;-59
2023/05/18 08:31:00;;;;;;;6.85;2.80;;;;;;;;;;5073133;28;20060;-59
2023/05/18 08:33:27;;;;;;;6.15;2.30;;;;;;;;;;5073092;28;20059;-59
2023/05/18 08:35:54;;;;;;;5.55;2.50;;;;;;;;;;5072639;28;20059;-59
2023/05/18 08:38:22;;;;;;;7.07;2.75;;;;;;;;;;5071556;28;20060;-59
2023/05/18 08:40:51;;;;;;;7.72;2.90;;;;;;;;;;5071160;28;20052;-58
2023/05/18 08:43:21;;;;;;;6.15;2.53;;;;;;;;;;5060105;28;20064;-58
2023/05/18 08:45:50;;;;;;;4.95;2.35;;;;;;;;;;5052944;28;20052;-58
2023/05/18 08:48:17;;;;;;;6.93;2.55;;;;;;;;;;5051799;28;20060;-58
2023/05/18 08:50:44;;;;;;;4.45;2.40;;;;;;;;;;5062557;28;20057;-58
2023/05/18 08:53:11;;;;;;;5.93;2.40;;;;;;;;;;5062683;28;20053;-58
2023/05/18 08:55:40;;;;;;;6.22;3.20;;;;;;;;;;5069633;28;20056;-58
2023/05/18 08:58:09;;;;;;;6.78;2.92;;;;;;;;;;5069214;28;20048;-59
2023/05/18 09:00:35;;;;;;;4.60;2.53;;;;;;;;;;5072664;28;20049;-59
2023/05/18 09:03:03;;;;;;;6.93;2.83;;;;;;;;;;5072379;28;20059;-59
2023/05/18 09:05:31;;;;;;;7.20;3.00;;;;;;;;;;5064622;28;20405;-60
2023/05/18 09:07:58;;;;;;;7.18;2.80;;;;;;;;;;5060699;28;20397;-59
2023/05/18 09:10:25;;;;;;;6.22;2.50;;;;;;;;;;5058995;28;20052;-59
2023/05/18 09:12:54;;;;;;;6.22;2.97;;;;;;;;;;5062208;28;20052;-59
2023/05/18 09:15:23;;;;;;;6.78;2.58;;;;;;;;;;5068892;28;20049;-58
2023/05/18 09:17:50;;;;;;;4.65;2.33;;;;;;;;;;5055734;28;20048;-58
2023/05/18 09:20:23;;;;;;;5.85;2.50;;;;;;;;;;5071056;28;20052;-59
2023/05/18 09:22:51;;;;;;;5.55;2.50;;;;;;;;;;5054052;28;20075;-59
2023/05/18 09:25:18;;;;;;;6.82;2.83;;;;;;;;;;5057317;28;20056;-59
2023/05/18 09:27:45;;;;;;;6.53;2.95;;;;;;;;;;5054786;28;20060;-59
2023/05/18 09:30:13;;;;;;;6.53;2.90;;;;;;;;;;5056039;28;20048;-59
2023/05/18 09:32:40;;;;;;;4.82;2.13;;;;;;;;;;5058969;28;20402;-57
2023/05/18 09:35:08;;;;;;;7.55;2.47;;;;;;;;;;5049396;28;20049;-58
2023/05/18 09:37:35;;;;;;;4.68;2.75;;;;;;;;;;5061688;28;20485;-58
2023/05/18 09:40:04;;;;;;;5.95;2.60;;;;;;;;;;5057293;28;20413;-58
2023/05/18 09:42:37;;;;;;;5.75;2.70;;;;;;;;;;5064395;28;20070;-58
2023/05/18 09:45:04;;;;;;;6.18;2.88;;;;;;;;;;5072322;28;20512;-58
2023/05/18 09:47:33;;;;;;;7.53;2.60;;;;;;;;;;5071744;28;20493;-58
2023/05/18 09:49:59;;;;;;;7.05;2.92;;;;;;;;;;5065969;28;20595;-58
2023/05/18 09:52:26;;;;;;;5.05;2.70;;;;;;;;;;5051804;28;20056;-58
2023/05/18 09:54:58;;;;;;;5.75;2.97;;;;;;;;;;5060681;28;20053;-58
2023/05/18 09:57:25;;;;;;;5.13;2.75;;;;;;;;;;5062007;28;20052;-58
2023/05/18 09:59:55;;;;;;;5.75;2.60;;;;;;;;;;5051471;28;20060;-58
2023/05/18 10:02:24;;;;;;;5.70;2.45;;;;;;;;;;5052206;28;20063;-58
2023/05/18 10:04:52;;;;;;;5.28;2.60;;;;;;;;;;5059687;28;20382;-58
2023/05/18 10:07:19;;;;;;;5.38;2.35;;;;;;;;;;5071378;28;20049;-58
2023/05/18 10:09:46;;;;;;;4.45;2.33;;;;;;;;;;5071276;28;20052;-58
2023/05/18 10:12:13;;;;;;;5.75;2.20;;;;;;;;;;5075007;28;20065;-58
2023/05/18 10:14:41;;;;;;;5.03;2.80;;;;;;;;;;5070036;28;20052;-58
2023/05/18 10:17:08;;;;;;;4.87;2.57;;;;;;;;;;5069172;28;20516;-58
2023/05/18 10:19:35;;;;;;;7.15;2.80;;;;;;;;;;5058144;28;20064;-59
2023/05/18 10:22:06;;;;;;;9.45;2.72;;;;;;;;;;5055473;28;20053;-58
2023/05/18 10:24:34;;;;;;;5.78;3.05;;;;;;;;;;5054971;28;20072;-58
2023/05/18 10:27:04;;;;;;;5.97;2.70;;;;;;;;;;5073610;28;20409;-58
2023/05/18 10:29:32;;;;;;;5.70;2.70;;;;;;;;;;5060654;28;20053;-58
2023/05/18 10:32:02;;;;;;;6.18;2.78;;;;;;;;;;5056616;28;20064;-59
2023/05/18 10:34:28;;;;;;;5.75;2.58;;;;;;;;;;5074948;28;20056;-58
2023/05/18 10:36:56;;;;;;;5.70;2.47;;;;;;;;;;5074717;28;20049;-58
2023/05/18 10:39:26;;;;;;;5.90;2.58;;;;;;;;;;5075110;28;20053;-58
2023/05/18 10:41:57;;;;;;;4.80;2.45;;;;;;;;;;5074629;28;20048;-58
2023/05/18 10:44:24;;;;;;;4.68;2.58;;;;;;;;;;5072134;28;20056;-58
2023/05/18 10:46:52;;;;;;;6.70;2.70;;;;;;;;;;5074643;28;20049;-58
2023/05/18 10:49:22;;;;;;;5.23;2.50;;;;;;;;;;5074270;28;20455;-58
2023/05/18 10:51:49;;;;;;;4.15;2.20;;;;;;;;;;5074837;28;20486;-58
2023/05/18 10:54:16;;;;;;;5.75;2.67;;;;;;;;;;5074977;28;20390;-59
2023/05/18 10:56:46;;;;;;;6.20;2.70;;;;;;;;;;5074796;28;20060;-59
2023/05/18 10:59:14;;;;;;;5.07;2.28;;;;;;;;;;5071076;28;20406;-58
2023/05/18 11:01:41;;;;;;;5.43;2.60;;;;;;;;;;5074850;28;20063;-59
2023/05/18 11:04:08;;;;;;;6.78;2.80;;;;;;;;;;5073542;28;20055;-58
2023/05/18 11:06:36;;;;;;;4.82;2.20;;;;;;;;;;5074394;28;20052;-58
2023/05/18 11:09:03;;;;;;;5.35;2.60;;;;;;;;;;5074861;28;20053;-58
2023/05/18 11:11:30;;;;;;;5.47;2.30;;;;;;;;;;5074316;28;20063;-59
2023/05/18 11:14:04;;;;;;;5.75;2.50;;;;;;;;;;5071110;28;20059;-59
2023/05/18 11:16:35;;;;;;;7.03;2.70;;;;;;;;;;5074236;28;20048;-59
2023/05/18 11:19:05;;;;;;;5.85;2.53;;;;;;;;;;5074740;28;20052;-59
2023/05/18 11:21:53;;;;;;;6.18;2.72;;;;;;;;;;5074138;28;20048;-58
2023/05/18 11:24:20;;;;;;;10.02;3.13;;;;;;;;;;5069656;28;20079;-59
2023/05/18 11:26:50;;;;;;;;;;;;;;;;;;5070605;28;20044;-58
2023/05/18 11:29:19;;;;;;;6.90;2.47;;;;;;;;;;5054262;28;19928;-58
2023/05/18 11:31:47;;;;;;;4.85;2.53;;;;;;;;;;5054390;28;20057;-58
2023/05/18 11:34:32;;;;;;;5.18;2.28;;;;;;;;;;5054135;28;20178;-58
2023/05/18 11:37:04;;;;;;;7.65;3.22;;;;;;;;;;5053419;28;20072;-59
2023/05/18 11:39:32;;;;;;;4.32;2.20;;;;;;;;;;5059227;28;20493;-59
2023/05/18 11:41:59;;;;;;;5.15;2.45;;;;;;;;;;5053833;28;20053;-59
2023/05/18 11:44:28;;;;;;;5.82;2.65;;;;;;;;;;5058553;28;20052;-58
2023/05/18 11:46:59;;;;;;;5.20;2.30;;;;;;;;;;5073390;28;20052;-60
2023/05/18 11:49:27;;;;;;;4.55;2.55;;;;;;;;;;5073896;28;20057;-58
2023/05/18 11:52:11;;;;;;;5.60;2.22;;;;;;;;;;5070469;28;20049;-58
2023/05/18 11:54:40;;;;;;;5.05;2.47;;;;;;;;;;5043216;28;20056;-58
2023/05/18 11:57:07;;;;;;;6.72;2.88;;;;;;;;;;5056241;28;20036;-57
2023/05/18 11:59:37;;;;;;;6.10;3.05;;;;;;;;;;5073616;28;20052;-57
2023/05/18 12:02:10;;;;;;;5.57;2.40;;;;;;;;;;5073451;28;20057;-59
2023/05/18 12:04:45;;;;;;;7.20;2.72;;;;;;;;;;5074716;28;20060;-58
2023/05/18 12:07:12;;;;;;;5.32;2.40;;;;;;;;;;5073845;28;20059;-58
2023/05/18 12:09:45;;;;;;;7.50;3.30;;;;;;;;;;5071654;28;20059;-59
2023/05/18 12:12:15;;;;;;;5.25;2.50;;;;;;;;;;5064425;28;20052;-59
2023/05/18 12:14:44;;;;;;;6.97;2.88;;;;;;;;;;5073485;28;20516;-59
2023/05/18 12:17:11;;;;;;;7.70;2.60;;;;;;;;;;5072742;28;20072;-59
2023/05/18 12:19:38;;;;;;;6.47;2.50;;;;;;;;;;5070506;28;20056;-59
2023/05/18 12:22:05;;;;;;;5.18;2.28;;;;;;;;;;5062331;28;20056;-59
2023/05/18 12:24:34;;;;;;;5.72;2.45;;;;;;;;;;5050495;28;20556;-59
2023/05/18 12:27:03;;;;;;;4.38;2.38;;;;;;;;;;5056551;28;20049;-58
2023/05/18 12:29:30;;;;;;;4.68;2.80;;;;;;;;;;5060617;28;20059;-58
2023/05/18 12:31:58;;;;;;;6.72;2.55;;;;;;;;;;5052536;28;20056;-57
2023/05/18 12:34:25;;;;;;;;;;;;;;;;;;5062626;28;20049;-58
2023/05/18 12:36:53;;;;;;;4.72;2.20;;;;;;;;;;5066397;28;20293;-58
2023/05/18 12:39:19;;;;;;;;;;;;;;;;;;5069616;28;20072;-58
2023/05/18 12:41:46;;;;;;;5.20;2.38;;;;;;;;;;5055647;28;19947;-58
2023/05/18 12:44:13;;;;;;;8.02;2.45;;;;;;;;;;5058127;28;20055;-58
2023/05/18 12:46:41;;;;;;;7.65;2.80;;;;;;;;;;5063536;28;20044;-59
2023/05/18 12:49:10;;;;;;;5.30;2.50;;;;;;;;;;5070957;28;20413;-58
2023/05/18 12:51:37;;;;;;;5.78;2.58;;;;;;;;;;5065767;28;20051;-58
2023/05/18 12:54:05;;;;;;;6.28;2.53;;;;;;;;;;5066531;28;20049;-58
2023/05/18 12:56:51;;;;;;;5.05;2.15;;;;;;;;;;5054618;28;20064;-58
2023/05/18 12:59:19;;;;;;;5.82;2.20;;;;;;;;;;5052730;28;20387;-58
2023/05/18 13:01:46;;;;;;;4.45;2.42;;;;;;;;;;5063764;28;20501;-58
2023/05/18 13:04:14;;;;;;;5.20;2.45;;;;;;;;;;5065416;28;20053;-58
2023/05/18 13:06:41;;;;;;;4.60;2.15;;;;;;;;;;5067747;28;20056;-58
2023/05/18 13:09:08;;;;;;;5.82;2.42;;;;;;;;;;5063248;28;20052;-58
2023/05/18 13:11:35;;;;;;;5.22;2.35;;;;;;;;;;5061227;28;20405;-58
2023/05/18 13:14:03;;;;;;;5.72;2.38;;;;;;;;;;5052930;28;20063;-58
2023/05/18 13:16:30;;;;;;;4.25;2.20;;;;;;;;;;5067497;28;20416;-59
2023/05/18 13:18:58;;;;;;;4.95;2.55;;;;;;;;;;5057746;28;20067;-59
2023/05/18 13:21:26;;;;;;;5.43;2.42;;;;;;;;;;5055981;28;20056;-58
2023/05/18 13:23:53;;;;;;;6.35;2.65;;;;;;;;;;5064129;28;20049;-59
2023/05/18 13:26:20;;;;;;;5.63;2.88;;;;;;;;;;5058940;28;20390;-58
2023/05/18 13:28:49;;;;;;;6.07;2.58;;;;;;;;;;5055212;28;20383;-59
2023/05/18 13:31:16;;;;;;;9.40;3.20;;;;;;;;;;5071810;28;20056;-58
2023/05/18 13:33:43;;;;;;;5.43;2.33;;;;;;;;;;5072210;28;20057;-58
2023/05/18 13:36:10;;;;;;;7.07;2.08;;;;;;;;;;5071677;28;20053;-58
2023/05/18 13:38:38;;;;;;;5.07;2.35;;;;;;;;;;5068687;28;20405;-58
2023/05/18 13:41:05;;;;;;;4.97;1.92;;;;;;;;;;5063299;28;20052;-58
2023/05/18 13:43:32;;;;;;;7.65;2.83;;;;;;;;;;5052033;28;20056;-58
2023/05/18 13:45:59;;;;;;;6.10;2.10;;;;;;;;;;5071452;28;20056;-58
2023/05/18 13:48:27;;;;;;;5.10;1.95;;;;;;;;;;5073926;28;20048;-58
2023/05/18 13:50:54;;;;;;;5.13;2.20;;;;;;;;;;5074586;28;20052;-58
2023/05/18 13:53:21;;;;;;;5.47;2.00;;;;;;;;;;5076021;28;20053;-58
2023/05/18 13:55:49;;;;;;;6.88;2.40;;;;;;;;;;5071143;28;20402;-58
2023/05/18 13:58:16;;;;;;;6.32;2.42;;;;;;;;;;5055911;28;20052;-58
2023/05/18 14:00:43;;;;;;;5.55;2.53;;;;;;;;;;5056060;28;20490;-59
2023/05/18 14:03:10;;;;;;;5.50;2.17;;;;;;;;;;5055795;28;20049;-58
2023/05/18 14:05:37;;;;;;;5.30;2.13;;;;;;;;;;5055297;28;20060;-58
2023/05/18 14:08:04;;;;;;;6.68;2.30;;;;;;;;;;5062928;28;20122;-58
2023/05/18 14:10:31;;;;;;;6.40;2.30;;;;;;;;;;5073328;28;20056;-58
2023/05/18 14:12:59;;;;;;;6.45;2.22;;;;;;;;;;5070723;28;20393;-57
2023/05/18 14:15:26;;;;;;;4.50;2.15;;;;;;;;;;5075097;28;20064;-58
2023/05/18 14:17:52;;;;;;;6.15;2.42;;;;;;;;;;5074826;28;20049;-58
2023/05/18 14:20:19;;;;;;;7.07;2.38;;;;;;;;;;5074898;28;20049;-58
2023/05/18 14:22:46;;;;;;;5.22;2.03;;;;;;;;;;5075177;28;20052;-58
2023/05/18 14:25:13;;;;;;;5.90;1.95;;;;;;;;;;5075120;28;20437;-58
2023/05/18 14:27:40;;;;;;;4.90;1.95;;;;;;;;;;5071532;28;20049;-58
2023/05/18 14:30:08;;;;;;;5.88;2.17;;;;;;;;;;5075264;28;20052;-58
2023/05/18 14:32:35;;;;;;;5.45;2.20;;;;;;;;;;5074990;28;20049;-58
2023/05/18 14:35:02;;;;;;;4.38;1.88;;;;;;;;;;5074713;28;20044;-58
2023/05/18 14:37:29;;;;;;;6.22;2.17;;;;;;;;;;5057299;28;20072;-58
2023/05/18 14:39:56;;;;;;;5.68;2.00;;;;;;;;;;5054895;28;20072;-58
2023/05/18 14:42:23;;;;;;;4.85;2.00;;;;;;;;;;5064725;28;20060;-58
2023/05/18 14:44:50;;;;;;;5.93;2.30;;;;;;;;;;5074344;28;20071;-58
2023/05/18 14:47:18;;;;;;;6.82;1.90;;;;;;;;;;5074901;28;20056;-58